createdAt,value
2023-10-10T00:00:24.972Z,20.63
2023-10-10T00:02:52.585Z,23.23
2023-10-10T00:05:20.097Z,23.25
2023-10-10T00:07:47.870Z,24.70
2023-10-10T00:10:14.558Z,22.75
2023-10-10T00:12:41.116Z,24.67
2023-10-10T00:15:13.755Z,29.80
2023-10-10T00:17:42.118Z,30.15
2023-10-10T00:20:18.102Z,25.90
2023-10-10T00:22:48.663Z,20.65
2023-10-10T00:25:25.152Z,17.20
2023-10-10T00:27:57.673Z,20.73
2023-10-10T00:30:24.149Z,20.17
2023-10-10T00:32:51.975Z,20.07
2023-10-10T00:35:19.086Z,18.88
2023-10-10T00:37:46.320Z,21.17
2023-10-10T00:40:18.785Z,23.35
2023-10-10T00:42:45.182Z,26.60
2023-10-10T00:45:13.748Z,27.25
2023-10-10T00:47:50.650Z,22.02
2023-10-10T00:50:26.179Z,23.23
2023-10-10T00:52:54.474Z,22.20
2023-10-10T00:55:28.832Z,20.35
2023-10-10T00:58:00.157Z,20.52
2023-10-10T01:00:30.565Z,17.48
2023-10-10T01:03:07.956Z,20.50
2023-10-10T01:05:53.287Z,19.25
2023-10-10T01:08:20.831Z,15.90
2023-10-10T01:10:50.912Z,18.27
2023-10-10T01:13:18.396Z,18.25
2023-10-10T01:15:44.838Z,19.25
2023-10-10T01:18:14.992Z,17.08
2023-10-10T01:20:47.877Z,15.32
2023-10-10T01:23:20.034Z,15.85
2023-10-10T01:25:48.659Z,15.32
2023-10-10T01:30:58.876Z,11.90
2023-10-10T01:33:48.503Z,10.63
2023-10-10T01:36:30.833Z,13.90
2023-10-10T01:38:57.682Z,12.88
2023-10-10T01:41:25.785Z,12.18
2023-10-10T01:43:55.180Z,11.02
2023-10-10T01:46:30.961Z,9.93
2023-10-10T01:48:58.338Z,9.70
2023-10-10T01:51:34.351Z,12.10
2023-10-10T01:54:04.996Z,12.80
2023-10-10T01:56:31.464Z,11.00
2023-10-10T01:58:57.881Z,14.00
2023-10-10T02:01:28.428Z,13.10
2023-10-10T02:03:55.213Z,13.15
2023-10-10T02:06:29.482Z,14.20
2023-10-10T02:09:13.309Z,15.93
2023-10-10T02:11:50.755Z,16.52
2023-10-10T02:16:49.518Z,21.52
2023-10-10T02:19:26.100Z,21.45
2023-10-10T02:22:04.686Z,30.98
2023-10-10T02:24:31.116Z,28.13
2023-10-10T02:26:57.874Z,28.05
2023-10-10T02:29:30.325Z,37.70
2023-10-10T02:32:10.222Z,35.05
2023-10-10T02:34:37.712Z,33.03
2023-10-10T02:39:57.486Z,39.88
2023-10-10T02:42:24.820Z,40.17
2023-10-10T02:44:58.486Z,38.00
2023-10-10T02:47:32.415Z,39.95
2023-10-10T02:50:13.728Z,38.15
2023-10-10T02:52:40.405Z,40.28
2023-10-10T02:55:15.277Z,39.75
2023-10-10T02:57:42.738Z,37.10
2023-10-10T03:03:05.392Z,30.95
2023-10-10T03:05:41.419Z,31.13
2023-10-10T03:08:19.093Z,33.23
2023-10-10T03:10:55.603Z,34.53
2023-10-10T03:13:29.968Z,32.45
2023-10-10T03:15:57.591Z,29.08
2023-10-10T03:18:31.404Z,30.20
2023-10-10T03:21:13.340Z,29.15
2023-10-10T03:23:54.275Z,27.98
2023-10-10T03:26:36.621Z,28.25
2023-10-10T03:29:11.281Z,25.45
2023-10-10T03:31:43.395Z,24.83
2023-10-10T03:34:20.814Z,27.48
2023-10-10T03:37:05.666Z,24.45
2023-10-10T03:39:50.861Z,27.63
2023-10-10T03:42:35.728Z,25.67
2023-10-10T03:45:20.518Z,23.15
2023-10-10T03:48:05.390Z,22.00
2023-10-10T03:50:50.548Z,26.73
2023-10-10T03:53:35.654Z,24.33
2023-10-10T03:56:22.906Z,21.85
2023-10-10T03:59:08.327Z,23.55
2023-10-10T04:01:53.676Z,23.88
2023-10-10T04:04:38.511Z,20.48
2023-10-10T04:07:23.404Z,22.98
2023-10-10T04:10:08.298Z,21.35
2023-10-10T04:12:53.187Z,21.05
2023-10-10T04:15:37.928Z,21.30
2023-10-10T04:18:23.186Z,18.45
2023-10-10T04:21:08.023Z,21.48
2023-10-10T04:23:52.992Z,22.35
2023-10-10T04:26:37.757Z,24.08
2023-10-10T04:29:22.816Z,24.55
2023-10-10T04:32:07.845Z,25.05
2023-10-10T04:34:52.800Z,29.42
2023-10-10T04:37:37.704Z,28.10
2023-10-10T04:40:23.136Z,31.63
2023-10-10T04:43:08.036Z,27.02
2023-10-10T04:45:52.826Z,26.20
2023-10-10T04:48:37.734Z,30.10
2023-10-10T04:51:22.584Z,25.90
2023-10-10T04:54:07.717Z,30.38
2023-10-10T04:57:00.283Z,47.20
2023-10-10T04:59:45.330Z,34.75
2023-10-10T05:02:30.158Z,30.45
2023-10-10T05:05:15.533Z,26.00
2023-10-10T05:08:00.438Z,31.27
2023-10-10T05:10:45.358Z,31.05
2023-10-10T05:13:30.219Z,34.65
2023-10-10T05:16:21.576Z,34.88
2023-10-10T05:19:06.510Z,30.20
2023-10-10T05:21:51.405Z,31.35
2023-10-10T05:24:22.110Z,23.17
2023-10-10T05:26:48.688Z,28.67
2023-10-10T05:29:20.546Z,23.63
2023-10-10T05:31:48.498Z,22.52
2023-10-10T05:34:17.775Z,20.05
2023-10-10T05:36:45.977Z,22.15
2023-10-10T05:39:18.793Z,19.00
2023-10-10T05:41:45.819Z,20.45
2023-10-10T05:44:15.948Z,20.45
2023-10-10T05:46:42.555Z,20.55
2023-10-10T05:49:09.333Z,17.88
2023-10-10T05:51:36.364Z,14.85
2023-10-10T05:54:02.840Z,12.98
2023-10-10T05:56:31.158Z,18.33
2023-10-10T05:58:57.909Z,12.30
2023-10-10T06:01:24.949Z,10.55
2023-10-10T06:06:19.616Z,12.05
2023-10-10T06:08:46.616Z,14.35
2023-10-10T06:11:15.715Z,11.35
2023-10-10T06:13:45.014Z,10.85
2023-10-10T06:16:14.675Z,11.93
2023-10-10T06:18:46.243Z,15.10
2023-10-10T06:21:13.743Z,14.20
2023-10-10T06:23:43.177Z,13.98
2023-10-10T06:26:10.319Z,13.50
2023-10-10T06:28:37.411Z,16.92
2023-10-10T06:31:04.483Z,12.80
2023-10-10T06:33:31.651Z,19.15
2023-10-10T06:36:24.580Z,13.75
2023-10-10T06:39:07.239Z,16.77
2023-10-10T06:41:37.714Z,14.65
2023-10-10T06:44:14.914Z,18.27
2023-10-10T06:46:42.556Z,16.27
2023-10-10T06:49:12.985Z,20.33
2023-10-10T06:51:42.394Z,12.73
2023-10-10T06:54:21.240Z,12.27
2023-10-10T06:57:09.033Z,9.23
2023-10-10T06:59:36.614Z,10.73
2023-10-10T07:02:15.243Z,7.80
2023-10-10T07:04:42.085Z,11.27
2023-10-10T07:07:10.443Z,8.82
2023-10-10T07:09:43.428Z,10.63
2023-10-10T07:12:14.994Z,12.35
2023-10-10T07:14:55.184Z,9.88
2023-10-10T07:17:28.191Z,11.32
2023-10-10T07:20:03.772Z,10.60
2023-10-10T07:22:35.147Z,10.55
2023-10-10T07:25:09.660Z,8.10
2023-10-10T07:27:40.946Z,10.80
2023-10-10T07:30:14.920Z,8.27
2023-10-10T07:32:44.009Z,9.32
2023-10-10T07:35:16.061Z,7.60
2023-10-10T07:37:46.753Z,6.75
2023-10-10T07:40:17.638Z,6.35
2023-10-10T07:42:51.486Z,9.35
2023-10-10T07:45:27.719Z,6.78
2023-10-10T07:48:00.317Z,8.45
2023-10-10T07:50:28.213Z,6.70
2023-10-10T07:52:55.307Z,8.48
2023-10-10T07:55:23.732Z,7.28
2023-10-10T07:58:08.242Z,7.68
2023-10-10T08:00:38.933Z,7.25
2023-10-10T08:03:08.482Z,7.07
2023-10-10T08:05:35.133Z,6.40
2023-10-10T08:08:06.525Z,5.30
2023-10-10T08:10:44.472Z,9.45
2023-10-10T08:13:15.375Z,5.57
2023-10-10T08:15:57.484Z,6.57
2023-10-10T08:18:43.666Z,9.63
2023-10-10T08:21:12.233Z,7.13
2023-10-10T08:23:44.166Z,6.50
2023-10-10T08:26:19.315Z,5.60
2023-10-10T08:28:46.831Z,6.50
2023-10-10T08:31:16.322Z,6.45
2023-10-10T08:33:46.174Z,7.93
2023-10-10T08:36:30.839Z,4.75
2023-10-10T08:38:59.257Z,4.70
2023-10-10T08:41:31.153Z,5.32
2023-10-10T08:44:02.677Z,6.18
2023-10-10T08:46:31.943Z,7.25
2023-10-10T08:49:00.538Z,4.63
2023-10-10T08:51:34.906Z,5.68
2023-10-10T08:54:11.721Z,6.22
2023-10-10T08:56:42.011Z,4.53
2023-10-10T08:59:09.867Z,4.50
2023-10-10T09:01:39.482Z,4.93
2023-10-10T09:04:07.030Z,6.93
2023-10-10T09:06:59.197Z,7.15
2023-10-10T09:09:39.141Z,5.68
2023-10-10T09:12:13.794Z,3.88
2023-10-10T09:14:51.344Z,4.85
2023-10-10T09:17:29.840Z,4.13
2023-10-10T09:19:58.279Z,7.38
2023-10-10T09:22:44.220Z,4.40
2023-10-10T09:25:22.338Z,4.05
2023-10-10T09:27:59.904Z,4.97
2023-10-10T09:30:41.914Z,3.42
2023-10-10T09:33:23.525Z,4.82
2023-10-10T09:36:00.287Z,6.18
2023-10-10T09:38:47.922Z,4.25
2023-10-10T09:41:37.915Z,5.47
2023-10-10T09:44:24.548Z,4.25
2023-10-10T09:47:03.104Z,6.22
2023-10-10T09:49:50.303Z,3.80
2023-10-10T09:52:38.776Z,3.80
2023-10-10T09:55:29.959Z,5.07
2023-10-10T09:58:09.012Z,3.50
2023-10-10T10:00:40.816Z,3.95
2023-10-10T10:03:29.019Z,3.47
2023-10-10T10:06:08.178Z,3.03
2023-10-10T10:08:45.867Z,2.95
2023-10-10T10:11:20.170Z,4.25
2023-10-10T10:14:12.533Z,5.65
2023-10-10T10:16:59.261Z,3.90
2023-10-10T10:19:29.628Z,3.15
2023-10-10T10:22:09.700Z,3.85
2023-10-10T10:24:48.184Z,2.90
2023-10-10T10:27:32.930Z,5.60
2023-10-10T10:30:19.603Z,3.80
2023-10-10T10:32:50.489Z,3.40
2023-10-10T10:35:25.183Z,4.22
2023-10-10T10:38:00.895Z,3.80
2023-10-10T10:40:40.508Z,3.88
2023-10-10T10:43:16.562Z,4.38
2023-10-10T10:45:52.248Z,3.55
2023-10-10T10:48:32.362Z,2.78
2023-10-10T10:51:07.276Z,8.18
2023-10-10T10:53:40.238Z,3.33
2023-10-10T10:56:30.245Z,3.85
2023-10-10T10:59:22.601Z,3.47
2023-10-10T11:01:56.426Z,3.90
2023-10-10T11:04:40.954Z,2.83
2023-10-10T11:07:10.962Z,3.67
2023-10-10T11:09:54.297Z,6.85
2023-10-10T11:12:32.456Z,2.97
2023-10-10T11:15:05.854Z,3.38
2023-10-10T11:17:39.278Z,2.50
2023-10-10T11:20:28.784Z,2.88
2023-10-10T11:22:56.655Z,4.60
2023-10-10T11:25:42.436Z,4.85
2023-10-10T11:28:22.984Z,3.17
2023-10-10T11:30:54.221Z,3.75
2023-10-10T11:33:47.338Z,4.40
2023-10-10T11:36:39.442Z,3.53
2023-10-10T11:39:34.951Z,3.78
2023-10-10T11:42:05.624Z,3.42
2023-10-10T11:44:34.571Z,3.83
2023-10-10T11:47:08.291Z,6.88
2023-10-10T11:49:34.879Z,3.65
2023-10-10T11:52:01.372Z,4.30
2023-10-10T11:54:29.046Z,3.72
2023-10-10T11:56:55.517Z,4.05
2023-10-10T11:59:22.421Z,3.60
2023-10-10T12:01:51.603Z,4.75
2023-10-10T12:04:33.933Z,4.68
2023-10-10T12:07:05.358Z,4.30
2023-10-10T12:09:33.177Z,6.80
2023-10-10T12:12:05.771Z,4.50
2023-10-10T12:14:33.743Z,6.43
2023-10-10T12:17:01.208Z,5.97
2023-10-10T12:19:34.288Z,6.15
2023-10-10T12:22:08.887Z,4.28
2023-10-10T12:24:36.682Z,5.22
2023-10-10T12:27:08.083Z,5.05
2023-10-10T12:29:41.469Z,4.30
2023-10-10T12:32:20.737Z,5.00
2023-10-10T12:34:48.418Z,4.18
2023-10-10T12:37:18.254Z,5.03
2023-10-10T12:39:46.031Z,3.75
2023-10-10T12:42:12.627Z,4.85
2023-10-10T12:44:39.085Z,4.63
2023-10-10T12:47:07.884Z,4.50
2023-10-10T12:49:37.898Z,4.55
2023-10-10T12:52:13.029Z,7.22
2023-10-10T12:54:39.739Z,3.97
2023-10-10T12:57:14.836Z,6.03
2023-10-10T12:59:47.192Z,4.43
2023-10-10T13:02:16.546Z,4.35
2023-10-10T13:04:47.822Z,7.05
2023-10-10T13:07:17.290Z,5.35
2023-10-10T13:09:44.601Z,4.50
2023-10-10T13:14:51.801Z,5.75
2023-10-10T13:17:38.806Z,4.75
2023-10-10T13:20:06.269Z,5.90
2023-10-10T13:22:32.798Z,4.80
2023-10-10T13:24:59.316Z,4.60
2023-10-10T13:27:26.652Z,6.80
2023-10-10T13:29:53.238Z,4.93
2023-10-10T13:32:21.496Z,6.07
2023-10-10T13:34:48.233Z,4.80
2023-10-10T13:37:14.846Z,4.90
2023-10-10T13:39:45.059Z,5.70
2023-10-10T13:42:15.650Z,5.45
2023-10-10T13:44:43.003Z,7.00
2023-10-10T13:47:09.926Z,4.63
2023-10-10T13:49:45.233Z,5.10
2023-10-10T13:52:17.539Z,5.13
2023-10-10T13:54:44.021Z,4.85
2023-10-10T13:57:11.312Z,4.80
2023-10-10T13:59:37.967Z,4.72
2023-10-10T14:02:05.691Z,4.68
2023-10-10T14:04:46.859Z,6.15
2023-10-10T14:07:15.621Z,4.75
2023-10-10T14:09:59.687Z,5.82
2023-10-10T14:12:32.851Z,4.38
2023-10-10T14:15:00.422Z,4.43
2023-10-10T14:17:26.953Z,5.15
2023-10-10T14:19:53.612Z,6.47
2023-10-10T14:22:25.143Z,9.45
2023-10-10T14:24:53.681Z,5.13
2023-10-10T14:27:21.277Z,6.20
2023-10-10T14:29:49.085Z,8.75
2023-10-10T14:32:30.871Z,5.05
2023-10-10T14:35:01.905Z,5.70
2023-10-10T14:37:41.912Z,7.80
2023-10-10T14:40:16.821Z,6.68
2023-10-10T14:42:43.686Z,5.85
2023-10-10T14:45:10.435Z,8.45
2023-10-10T14:47:40.488Z,10.65
2023-10-10T14:50:11.832Z,6.13
2023-10-10T14:52:41.426Z,8.93
2023-10-10T14:55:25.076Z,14.18
2023-10-10T14:57:56.188Z,9.25
2023-10-10T15:00:29.301Z,13.35
2023-10-10T15:02:57.065Z,10.35
2023-10-10T15:05:27.569Z,6.55
2023-10-10T15:07:55.473Z,7.55
2023-10-10T15:10:27.415Z,9.10
2023-10-10T15:12:54.789Z,7.13
2023-10-10T15:15:23.818Z,5.85
2023-10-10T15:17:51.138Z,7.85
2023-10-10T15:20:17.733Z,6.03
2023-10-10T15:22:44.146Z,6.70
2023-10-10T15:25:11.923Z,6.97
2023-10-10T15:27:42.071Z,6.40
2023-10-10T15:30:10.108Z,5.40
2023-10-10T15:32:48.081Z,6.45
2023-10-10T15:35:16.589Z,6.43
2023-10-10T15:37:45.871Z,5.80
2023-10-10T15:40:21.701Z,7.40
2023-10-10T15:42:50.300Z,7.35
2023-10-10T15:45:22.773Z,8.82
2023-10-10T15:47:50.468Z,7.70
2023-10-10T15:50:17.943Z,6.38
2023-10-10T15:55:20.305Z,6.93
2023-10-10T15:57:47.270Z,11.95
2023-10-10T16:00:16.766Z,8.77
2023-10-10T16:02:43.316Z,7.18
2023-10-10T16:05:09.971Z,12.07
2023-10-10T16:07:36.396Z,8.13
2023-10-10T16:10:08.945Z,11.60
2023-10-10T16:12:35.391Z,14.23
2023-10-10T16:15:01.949Z,10.80
2023-10-10T16:17:29.737Z,12.55
2023-10-10T16:19:56.755Z,10.45
2023-10-10T16:22:23.187Z,11.43
2023-10-10T16:24:53.574Z,12.60
2023-10-10T16:27:22.789Z,10.70
2023-10-10T16:29:49.358Z,10.25
2023-10-10T16:32:19.383Z,10.50
2023-10-10T16:34:46.169Z,11.73
2023-10-10T16:37:15.757Z,14.00
2023-10-10T16:39:46.790Z,10.57
2023-10-10T16:42:15.270Z,9.50
2023-10-10T16:44:41.792Z,10.77
2023-10-10T16:47:09.322Z,11.02
2023-10-10T16:49:38.429Z,9.32
2023-10-10T16:52:07.113Z,8.77
2023-10-10T16:54:34.833Z,9.95
2023-10-10T16:57:01.398Z,10.23
2023-10-10T16:59:27.954Z,8.90
2023-10-10T17:01:54.579Z,8.40
2023-10-10T17:04:21.209Z,9.10
2023-10-10T17:06:49.923Z,9.20
2023-10-10T17:09:16.860Z,12.75
2023-10-10T17:11:43.664Z,12.20
2023-10-10T17:14:13.376Z,10.00
2023-10-10T17:16:40.809Z,9.95
2023-10-10T17:24:20.865Z,9.77
2023-10-10T17:26:47.533Z,10.82
2023-10-10T17:29:14.284Z,10.70
2023-10-10T17:31:41.212Z,10.25
2023-10-10T17:34:07.880Z,11.55
2023-10-10T17:36:36.907Z,11.02
2023-10-10T17:39:05.141Z,10.35
2023-10-10T17:41:36.107Z,12.68
2023-10-10T17:44:10.319Z,11.85
2023-10-10T17:46:37.272Z,11.93
2023-10-10T17:49:05.916Z,12.18
2023-10-10T17:51:35.968Z,11.13
2023-10-10T17:54:03.664Z,11.35
2023-10-10T17:56:30.503Z,10.90
2023-10-10T17:58:56.978Z,11.60
2023-10-10T18:01:23.741Z,13.87
2023-10-10T18:03:55.874Z,12.10
2023-10-10T18:06:24.671Z,10.95
2023-10-10T18:08:55.599Z,10.90
2023-10-10T18:11:27.072Z,12.38
2023-10-10T18:13:53.973Z,12.23
2023-10-10T18:16:22.932Z,12.07
2023-10-10T18:18:51.361Z,14.90
2023-10-10T18:21:20.668Z,13.43
2023-10-10T18:23:47.798Z,11.38
2023-10-10T18:26:16.551Z,13.27
2023-10-10T18:28:43.524Z,11.52
2023-10-10T18:31:14.327Z,12.40
2023-10-10T18:33:42.340Z,11.13
2023-10-10T18:36:12.168Z,11.55
2023-10-10T18:38:39.411Z,11.30
2023-10-10T18:41:06.135Z,11.75
2023-10-10T18:43:33.062Z,11.10
2023-10-10T18:46:01.744Z,11.00
2023-10-10T18:48:28.917Z,11.00
2023-10-10T18:53:27.222Z,13.80
2023-10-10T18:55:56.040Z,11.18
2023-10-10T18:58:23.743Z,12.43
2023-10-10T19:00:52.427Z,10.48
2023-10-10T19:03:19.879Z,10.25
2023-10-10T19:05:51.637Z,11.23
2023-10-10T19:08:18.954Z,9.68
2023-10-10T19:10:51.810Z,9.85
2023-10-10T19:13:18.892Z,11.73
2023-10-10T19:15:48.644Z,9.00
2023-10-10T19:18:17.045Z,10.02
2023-10-10T19:20:47.563Z,9.13
2023-10-10T19:23:15.802Z,9.30
2023-10-10T19:25:48.559Z,13.93
2023-10-10T19:28:16.890Z,11.73
2023-10-10T19:30:43.741Z,11.68
2023-10-10T19:33:10.594Z,9.57
2023-10-10T19:35:44.484Z,9.65
2023-10-10T19:38:12.201Z,10.40
2023-10-10T19:43:05.147Z,9.07
2023-10-10T19:45:31.683Z,10.43
2023-10-10T19:48:03.772Z,10.40
2023-10-10T19:50:31.975Z,9.55
2023-10-10T19:52:58.753Z,15.32
2023-10-10T19:55:25.737Z,12.60
2023-10-10T19:57:52.185Z,10.23
2023-10-10T20:00:21.307Z,10.23
2023-10-10T20:02:48.931Z,15.43
2023-10-10T20:05:15.856Z,10.02
2023-10-10T20:07:42.352Z,10.88
2023-10-10T20:10:16.323Z,10.63
2023-10-10T20:13:06.504Z,12.93
2023-10-10T20:15:40.685Z,8.30
2023-10-10T20:18:16.330Z,9.43
2023-10-10T20:20:43.024Z,10.77
2023-10-10T20:23:10.663Z,8.52
2023-10-10T20:25:42.326Z,10.25
2023-10-10T20:28:10.279Z,9.00
2023-10-10T20:30:42.202Z,12.43
2023-10-10T20:33:15.858Z,8.13
2023-10-10T20:35:46.676Z,10.40
2023-10-10T20:38:13.692Z,9.77
2023-10-10T20:40:44.456Z,7.55
2023-10-10T20:43:11.304Z,9.82
2023-10-10T20:45:38.265Z,8.63
2023-10-10T20:48:10.715Z,7.47
2023-10-10T20:50:42.528Z,9.13
2023-10-10T20:53:09.374Z,8.07
2023-10-10T20:55:36.213Z,11.10
2023-10-10T20:58:02.793Z,8.80
2023-10-10T21:00:32.221Z,6.93
2023-10-10T21:03:02.188Z,10.45
2023-10-10T21:05:29.043Z,7.78
2023-10-10T21:07:58.138Z,8.93
2023-10-10T21:10:25.013Z,8.93
2023-10-10T21:12:51.503Z,9.02
2023-10-10T21:15:19.076Z,9.07
2023-10-10T21:17:50.027Z,8.70
2023-10-10T21:20:26.039Z,9.93
2023-10-10T21:22:53.735Z,6.97
2023-10-10T21:25:21.858Z,9.85
2023-10-10T21:27:58.491Z,9.48
2023-10-10T21:30:29.766Z,10.93
2023-10-10T21:32:57.633Z,9.45
2023-10-10T21:35:31.059Z,8.68
2023-10-10T21:37:59.805Z,9.27
2023-10-10T21:40:27.008Z,6.50
2023-10-10T21:42:54.772Z,7.63
2023-10-10T21:45:23.327Z,10.90
2023-10-10T21:47:51.884Z,9.73
2023-10-10T21:50:19.318Z,9.30
2023-10-10T21:55:18.042Z,10.52
2023-10-10T21:57:49.728Z,9.75
2023-10-10T22:00:17.542Z,10.60
2023-10-10T22:02:49.593Z,9.73
2023-10-10T22:05:17.516Z,7.18
2023-10-10T22:07:44.854Z,10.13
2023-10-10T22:12:44.964Z,9.27
2023-10-10T22:15:12.005Z,7.97
2023-10-10T22:17:44.177Z,8.70
2023-10-10T22:20:12.562Z,11.38
2023-10-10T22:22:40.429Z,10.95
2023-10-10T22:25:29.037Z,8.15
2023-10-10T22:27:57.660Z,5.65
2023-10-10T22:30:27.941Z,10.80
2023-10-10T22:32:55.952Z,9.80
2023-10-10T22:35:23.185Z,8.15
2023-10-10T22:37:51.708Z,9.48
2023-10-10T22:40:25.828Z,12.77
2023-10-10T22:43:05.343Z,8.27
2023-10-10T22:45:34.242Z,5.95
2023-10-10T22:48:02.370Z,8.52
2023-10-10T22:50:31.741Z,9.55
2023-10-10T22:53:00.641Z,6.57
2023-10-10T22:55:29.508Z,11.35
2023-10-10T22:57:57.587Z,6.32
2023-10-10T23:00:37.520Z,11.75
2023-10-10T23:03:06.759Z,8.68
2023-10-10T23:05:34.489Z,5.75
2023-10-10T23:08:02.646Z,9.50
2023-10-10T23:10:30.687Z,9.48
2023-10-10T23:12:57.774Z,8.30
2023-10-10T23:15:30.196Z,9.55
2023-10-10T23:18:01.933Z,8.20
2023-10-10T23:20:30.520Z,10.20
2023-10-10T23:22:59.945Z,7.93
2023-10-10T23:25:27.280Z,9.38
2023-10-10T23:27:57.697Z,9.38
2023-10-10T23:30:30.941Z,11.40
2023-10-10T23:32:58.572Z,9.63
2023-10-10T23:35:27.761Z,6.07
2023-10-10T23:38:01.721Z,7.68
2023-10-10T23:40:48.957Z,7.45
2023-10-10T23:46:00.724Z,9.43
2023-10-10T23:48:30.568Z,12.00
2023-10-10T23:50:59.269Z,7.85
2023-10-10T23:53:25.855Z,9.15
2023-10-10T23:55:56.096Z,9.97
2023-10-10T23:58:26.057Z,10.18
